Time;durP1;ratioP1;P1;durP2;ratioP2;P2;SDS_P1;SDS_P2;PMS_P1;PMS_P2;Temp;Humidity;BMP_temperature;BMP_pressure;BME280_temperature;BME280_humidity;BME280_pressure;Samples;Min_cycle;Max_cycle;Signal;HPM_P1;HPM_P2
2023/05/11 00:01:41;;;;;;;11.90;2.25;;;;;;;;;;6270085;22;20079;-78
2023/05/11 00:04:07;;;;;;;11.15;1.33;;;;;;;;;;6270256;22;20000;-78
2023/05/11 00:06:32;;;;;;;7.20;1.48;;;;;;;;;;6269977;22;20057;-77
2023/05/11 00:08:58;;;;;;;6.50;1.40;;;;;;;;;;6270687;22;20564;-77
2023/05/11 00:11:23;;;;;;;13.63;1.70;;;;;;;;;;6270025;22;20000;-77
2023/05/11 00:13:49;;;;;;;10.63;1.58;;;;;;;;;;6269888;22;20464;-77
2023/05/11 00:16:15;;;;;;;6.28;1.40;;;;;;;;;;6242908;22;20008;-77
2023/05/11 00:18:40;;;;;;;11.07;2.30;;;;;;;;;;6243285;22;20008;-77
2023/05/11 00:21:06;;;;;;;6.90;1.38;;;;;;;;;;6269528;22;19999;-77
2023/05/11 00:23:31;;;;;;;8.18;1.48;;;;;;;;;;6270207;22;20007;-77
2023/05/11 00:25:57;;;;;;;8.27;1.65;;;;;;;;;;6270029;22;20375;-77
2023/05/11 00:28:22;;;;;;;8.38;1.42;;;;;;;;;;6270239;22;20083;-76
2023/05/11 00:30:48;;;;;;;10.68;1.65;;;;;;;;;;6269917;22;19995;-77
2023/05/11 00:33:13;;;;;;;8.45;1.38;;;;;;;;;;6269567;22;20448;-77
2023/05/11 00:35:39;;;;;;;6.95;1.30;;;;;;;;;;6269638;22;20004;-77
2023/05/11 00:38:04;;;;;;;6.95;1.45;;;;;;;;;;6269703;22;20007;-76
2023/05/11 00:40:31;;;;;;;14.15;1.92;;;;;;;;;;6242810;22;20365;-76
2023/05/11 00:42:56;;;;;;;8.10;1.38;;;;;;;;;;6242870;22;20008;-77
2023/05/11 00:45:22;;;;;;;9.73;1.90;;;;;;;;;;6271019;22;20293;-76
2023/05/11 00:47:48;;;;;;;10.75;1.52;;;;;;;;;;6271887;22;20003;-76
2023/05/11 00:50:14;;;;;;;12.10;1.80;;;;;;;;;;6272103;22;20019;-77
2023/05/11 00:52:41;;;;;;;10.90;1.90;;;;;;;;;;6271267;22;20105;-77
2023/05/11 00:55:07;;;;;;;12.38;1.60;;;;;;;;;;6271835;22;20007;-77
2023/05/11 00:57:35;;;;;;;9.05;1.30;;;;;;;;;;6271944;22;20007;-77
2023/05/11 01:00:03;;;;;;;10.73;1.70;;;;;;;;;;6244616;22;20435;-77
2023/05/11 01:02:29;;;;;;;13.57;1.50;;;;;;;;;;6272112;22;20004;-76
2023/05/11 01:04:55;;;;;;;9.30;2.28;;;;;;;;;;6271544;22;20000;-77
2023/05/11 01:07:57;;;;;;;11.00;1.67;;;;;;;;;;6271223;22;20092;-77
2023/05/11 01:10:28;;;;;;;9.20;1.50;;;;;;;;;;6272079;22;20003;-77
2023/05/11 01:13:24;;;;;;;9.95;1.50;;;;;;;;;;6271825;22;20023;-78
2023/05/11 01:15:52;;;;;;;9.65;1.75;;;;;;;;;;6272240;22;20074;-78
2023/05/11 01:18:33;;;;;;;10.38;1.90;;;;;;;;;;6271429;22;19995;-77
2023/05/11 01:21:00;;;;;;;11.13;1.52;;;;;;;;;;6271393;22;20058;-77
2023/05/11 01:23:58;;;;;;;14.63;1.98;;;;;;;;;;6271383;22;20002;-78
2023/05/11 01:26:44;;;;;;;10.13;1.80;;;;;;;;;;6271738;22;20332;-78
2023/05/11 01:29:37;;;;;;;9.93;1.45;;;;;;;;;;6271837;22;20007;-79
2023/05/11 01:32:08;;;;;;;9.68;1.77;;;;;;;;;;6271666;22;20003;-77
2023/05/11 01:34:37;;;;;;;9.98;1.75;;;;;;;;;;6271645;22;20004;-79
2023/05/11 01:37:22;;;;;;;10.45;1.63;;;;;;;;;;6271100;22;20011;-78
2023/05/11 01:39:52;;;;;;;9.30;1.88;;;;;;;;;;6270999;22;20023;-77
2023/05/11 01:42:23;;;;;;;12.13;2.23;;;;;;;;;;6271547;22;20027;-78
2023/05/11 01:44:52;;;;;;;17.67;2.22;;;;;;;;;;6271401;22;20313;-78
2023/05/11 01:47:20;;;;;;;11.15;1.92;;;;;;;;;;6271231;22;20003;-77
2023/05/11 01:49:46;;;;;;;12.32;1.95;;;;;;;;;;6271429;22;20010;-78
2023/05/11 01:52:13;;;;;;;10.45;1.90;;;;;;;;;;6270955;22;20094;-77
2023/05/11 01:54:42;;;;;;;10.57;2.08;;;;;;;;;;6271493;22;20343;-77
2023/05/11 01:57:10;;;;;;;13.05;2.08;;;;;;;;;;6270619;22;20003;-77
2023/05/11 01:59:39;;;;;;;12.95;2.20;;;;;;;;;;6271278;22;20004;-77
2023/05/11 02:02:07;;;;;;;10.90;2.47;;;;;;;;;;6271010;22;20004;-77
2023/05/11 02:04:35;;;;;;;11.63;2.40;;;;;;;;;;6271319;22;20004;-76
2023/05/11 02:07:01;;;;;;;13.85;2.20;;;;;;;;;;6270859;22;20008;-77
2023/05/11 02:09:30;;;;;;;11.55;2.05;;;;;;;;;;6271312;22;20022;-78
2023/05/11 02:11:59;;;;;;;13.07;2.45;;;;;;;;;;6271228;22;20100;-77
2023/05/11 02:14:28;;;;;;;12.38;2.10;;;;;;;;;;6271032;22;20000;-77
2023/05/11 02:16:56;;;;;;;17.52;2.50;;;;;;;;;;6271116;22;20007;-77
2023/05/11 02:19:21;;;;;;;10.88;2.30;;;;;;;;;;6271407;22;20040;-77
2023/05/11 02:21:48;;;;;;;14.05;2.25;;;;;;;;;;6270708;22;20000;-78
2023/05/11 02:24:15;;;;;;;9.80;2.00;;;;;;;;;;6270983;22;20062;-77
2023/05/11 02:26:41;;;;;;;10.70;2.00;;;;;;;;;;6271135;22;20033;-78
2023/05/11 02:29:06;;;;;;;13.10;2.60;;;;;;;;;;6270971;22;20000;-77
2023/05/11 02:31:39;;;;;;;19.63;2.60;;;;;;;;;;6244029;22;20510;-77
2023/05/11 02:34:19;;;;;;;9.90;2.08;;;;;;;;;;6270897;22;20004;-79
2023/05/11 02:36:52;;;;;;;12.55;2.03;;;;;;;;;;6270717;22;20004;-77
2023/05/11 02:39:22;;;;;;;10.45;1.80;;;;;;;;;;6271284;22;20012;-77
2023/05/11 02:41:54;;;;;;;11.18;1.98;;;;;;;;;;6272075;22;20004;-77
2023/05/11 02:44:23;;;;;;;6.78;1.70;;;;;;;;;;6270827;22;20031;-77
2023/05/11 02:46:51;;;;;;;19.63;2.58;;;;;;;;;;6270867;22;20416;-77
2023/05/11 02:49:21;;;;;;;8.35;2.13;;;;;;;;;;6270641;22;20000;-77
2023/05/11 02:51:48;;;;;;;16.33;1.97;;;;;;;;;;6270728;22;20381;-76
2023/05/11 02:54:15;;;;;;;9.45;1.90;;;;;;;;;;6270160;22;20435;-77
2023/05/11 02:56:41;;;;;;;14.63;2.00;;;;;;;;;;6270753;22;20607;-76
2023/05/11 02:59:06;;;;;;;11.88;2.00;;;;;;;;;;6270643;22;20032;-78
2023/05/11 03:01:32;;;;;;;12.70;1.73;;;;;;;;;;6271053;22;20310;-77
2023/05/11 03:04:07;;;;;;;15.43;2.22;;;;;;;;;;6270518;22;20012;-76
2023/05/11 03:06:32;;;;;;;8.48;1.83;;;;;;;;;;6270527;22;20008;-77
2023/05/11 03:09:00;;;;;;;11.40;2.35;;;;;;;;;;6270268;22;20006;-77
2023/05/11 03:11:26;;;;;;;12.30;1.70;;;;;;;;;;6270755;22;19999;-77
2023/05/11 03:13:52;;;;;;;11.63;1.90;;;;;;;;;;6270319;22;20326;-77
2023/05/11 03:16:18;;;;;;;13.02;2.10;;;;;;;;;;6270736;22;20000;-78
2023/05/11 03:18:44;;;;;;;10.85;1.90;;;;;;;;;;6270722;22;20000;-77
2023/05/11 03:21:10;;;;;;;15.15;2.03;;;;;;;;;;6270305;22;20014;-77
2023/05/11 03:23:37;;;;;;;15.18;2.33;;;;;;;;;;6270634;22;20336;-77
2023/05/11 03:26:05;;;;;;;11.13;2.00;;;;;;;;;;6270424;22;20004;-77
2023/05/11 03:28:31;;;;;;;10.07;2.40;;;;;;;;;;6270725;22;20490;-78
2023/05/11 03:30:56;;;;;;;8.80;1.95;;;;;;;;;;6270882;22;20001;-77
2023/05/11 03:33:22;;;;;;;9.10;2.00;;;;;;;;;;6270365;22;20010;-77
2023/05/11 03:35:49;;;;;;;10.07;1.85;;;;;;;;;;6243130;22;20458;-77
2023/05/11 03:38:15;;;;;;;11.43;2.22;;;;;;;;;;6269991;22;20071;-78
2023/05/11 03:40:42;;;;;;;8.90;1.75;;;;;;;;;;6270871;22;20405;-76
2023/05/11 03:43:11;;;;;;;12.18;1.80;;;;;;;;;;6270229;22;20008;-77
2023/05/11 03:45:38;;;;;;;11.88;2.00;;;;;;;;;;6269885;22;20413;-77
2023/05/11 03:48:05;;;;;;;6.97;1.70;;;;;;;;;;6270401;22;20000;-77
2023/05/11 03:50:32;;;;;;;11.10;2.40;;;;;;;;;;6270646;22;20071;-78
2023/05/11 03:52:59;;;;;;;12.77;2.13;;;;;;;;;;6269882;22;20008;-77
2023/05/11 03:55:25;;;;;;;9.20;1.92;;;;;;;;;;6270381;22;20008;-78
2023/05/11 03:57:51;;;;;;;11.30;1.80;;;;;;;;;;6270483;22;20032;-77
2023/05/11 04:00:17;;;;;;;6.95;2.00;;;;;;;;;;6270563;22;20010;-78
2023/05/11 04:02:43;;;;;;;13.30;2.17;;;;;;;;;;6270397;22;20003;-77
2023/05/11 04:05:09;;;;;;;13.30;2.10;;;;;;;;;;6269948;22;20000;-77
2023/05/11 04:07:36;;;;;;;9.98;1.98;;;;;;;;;;6269723;22;20003;-77
2023/05/11 04:10:04;;;;;;;11.02;1.95;;;;;;;;;;6270121;22;20019;-78
2023/05/11 04:12:30;;;;;;;14.05;2.10;;;;;;;;;;6270584;22;20030;-77
2023/05/11 04:14:55;;;;;;;10.40;2.17;;;;;;;;;;6269565;22;20004;-78
2023/05/11 04:17:21;;;;;;;12.10;1.85;;;;;;;;;;6270434;22;20558;-77
2023/05/11 04:19:46;;;;;;;9.93;1.90;;;;;;;;;;6243610;22;20003;-77
2023/05/11 04:22:12;;;;;;;9.80;1.83;;;;;;;;;;6271894;22;20908;-77
2023/05/11 04:24:37;;;;;;;12.85;1.90;;;;;;;;;;6272104;22;19999;-77
2023/05/11 04:27:03;;;;;;;15.55;2.05;;;;;;;;;;6244784;22;20007;-76
2023/05/11 04:29:28;;;;;;;14.30;2.10;;;;;;;;;;6272197;22;20003;-77
2023/05/11 04:31:54;;;;;;;7.85;1.70;;;;;;;;;;6272307;22;20027;-77
2023/05/11 04:34:20;;;;;;;12.00;1.60;;;;;;;;;;6272067;22;20067;-77
2023/05/11 04:36:47;;;;;;;13.00;1.98;;;;;;;;;;6271719;22;20007;-77
2023/05/11 04:39:12;;;;;;;13.68;2.05;;;;;;;;;;6271333;22;20031;-77
2023/05/11 04:41:38;;;;;;;13.50;1.70;;;;;;;;;;6272275;22;20012;-77
2023/05/11 04:44:03;;;;;;;12.73;1.88;;;;;;;;;;6271897;22;20011;-77
2023/05/11 04:46:29;;;;;;;7.82;1.90;;;;;;;;;;6272097;22;20388;-77
2023/05/11 04:48:54;;;;;;;11.18;1.70;;;;;;;;;;6271983;22;20046;-78
2023/05/11 04:51:20;;;;;;;12.45;1.70;;;;;;;;;;6271904;22;20061;-77
2023/05/11 04:53:45;;;;;;;9.45;1.52;;;;;;;;;;6272126;22;19996;-77
2023/05/11 04:56:11;;;;;;;10.07;1.30;;;;;;;;;;6271973;22;20004;-77
2023/05/11 04:58:37;;;;;;;6.65;1.50;;;;;;;;;;6271610;22;20010;-77
2023/05/11 05:01:02;;;;;;;8.10;1.70;;;;;;;;;;6271969;22;20007;-77
2023/05/11 05:03:28;;;;;;;8.23;1.88;;;;;;;;;;6271976;22;20455;-77
2023/05/11 05:05:53;;;;;;;8.98;1.70;;;;;;;;;;6271278;22;20028;-78
2023/05/11 05:08:20;;;;;;;8.35;1.40;;;;;;;;;;6272335;22;20015;-77
2023/05/11 05:10:46;;;;;;;11.27;1.80;;;;;;;;;;6271990;22;20118;-76
2023/05/11 05:13:11;;;;;;;7.50;1.40;;;;;;;;;;6244785;22;20155;-77
2023/05/11 05:15:37;;;;;;;7.72;1.33;;;;;;;;;;6271444;22;20420;-78
2023/05/11 05:18:02;;;;;;;8.55;1.80;;;;;;;;;;6272023;22;19995;-78
2023/05/11 05:20:28;;;;;;;9.98;1.70;;;;;;;;;;6271737;22;20000;-78
2023/05/11 05:22:54;;;;;;;5.60;1.30;;;;;;;;;;6271518;22;20004;-78
2023/05/11 05:25:20;;;;;;;8.05;1.40;;;;;;;;;;6271723;22;20082;-78
2023/05/11 05:27:45;;;;;;;5.05;1.35;;;;;;;;;;6271727;22;20011;-76
2023/05/11 05:30:11;;;;;;;5.28;1.30;;;;;;;;;;6271604;22;20172;-78
2023/05/11 05:32:36;;;;;;;8.90;1.60;;;;;;;;;;6244441;22;20452;-78
2023/05/11 05:35:02;;;;;;;7.88;1.40;;;;;;;;;;6271662;22;20018;-77
2023/05/11 05:37:28;;;;;;;8.88;1.40;;;;;;;;;;6271179;22;20003;-77
2023/05/11 05:39:53;;;;;;;7.00;1.33;;;;;;;;;;6271039;22;20008;-78
2023/05/11 05:42:19;;;;;;;8.57;1.40;;;;;;;;;;6271844;22;20004;-78
2023/05/11 05:44:44;;;;;;;13.50;1.60;;;;;;;;;;6271463;22;20020;-78
2023/05/11 05:47:10;;;;;;;4.63;1.15;;;;;;;;;;6271291;22;20047;-77
2023/05/11 05:49:35;;;;;;;10.15;1.60;;;;;;;;;;6271599;22;20008;-78
2023/05/11 05:52:01;;;;;;;7.72;1.77;;;;;;;;;;6243743;22;20000;-77
2023/05/11 05:54:26;;;;;;;6.13;1.60;;;;;;;;;;6271398;22;20082;-78
2023/05/11 05:56:52;;;;;;;8.45;1.35;;;;;;;;;;6271142;22;20014;-76
2023/05/11 05:59:20;;;;;;;8.23;1.80;;;;;;;;;;6271324;22;20007;-77
2023/05/11 06:01:46;;;;;;;9.75;1.58;;;;;;;;;;6271558;22;20007;-78
2023/05/11 06:04:12;;;;;;;13.90;1.75;;;;;;;;;;6271259;22;20119;-78
2023/05/11 06:06:38;;;;;;;5.93;1.50;;;;;;;;;;6270648;22;20078;-78
2023/05/11 06:09:03;;;;;;;9.20;1.67;;;;;;;;;;6271374;22;20031;-78
2023/05/11 06:11:29;;;;;;;11.30;1.50;;;;;;;;;;6271560;22;20007;-78
2023/05/11 06:13:54;;;;;;;6.50;1.50;;;;;;;;;;6271574;22;20011;-77
2023/05/11 06:16:19;;;;;;;11.07;1.77;;;;;;;;;;6271202;22;20297;-77
2023/05/11 06:18:45;;;;;;;7.43;1.40;;;;;;;;;;6271977;22;19995;-78
2023/05/11 06:21:11;;;;;;;7.40;1.40;;;;;;;;;;6270655;22;20011;-77
2023/05/11 06:23:36;;;;;;;14.88;1.73;;;;;;;;;;6271245;22;20360;-76
2023/05/11 06:26:03;;;;;;;6.72;1.55;;;;;;;;;;6270748;22;20073;-77
2023/05/11 06:28:28;;;;;;;9.52;1.50;;;;;;;;;;6243543;22;20121;-77
2023/05/11 06:30:58;;;;;;;11.10;1.50;;;;;;;;;;6271018;22;20444;-77
2023/05/11 06:33:24;;;;;;;10.60;1.48;;;;;;;;;;6271361;22;20000;-77
2023/05/11 06:35:49;;;;;;;9.90;1.60;;;;;;;;;;6270619;22;20058;-77
2023/05/11 06:38:15;;;;;;;10.10;1.60;;;;;;;;;;6270656;22;20008;-77
2023/05/11 06:41:00;;;;;;;9.10;1.80;;;;;;;;;;6271158;22;20007;-77
2023/05/11 06:43:26;;;;;;;10.80;1.67;;;;;;;;;;6269932;22;20016;-77
2023/05/11 06:45:51;;;;;;;7.35;2.03;;;;;;;;;;6270525;22;20086;-77
2023/05/11 06:48:17;;;;;;;9.88;2.10;;;;;;;;;;6243827;22;20034;-78
2023/05/11 06:50:42;;;;;;;8.10;1.50;;;;;;;;;;6270958;22;20349;-77
2023/05/11 06:53:09;;;;;;;12.48;2.00;;;;;;;;;;6270482;22;20071;-77
2023/05/11 06:55:35;;;;;;;11.15;1.85;;;;;;;;;;6270689;22;20590;-78
2023/05/11 06:58:00;;;;;;;11.40;1.80;;;;;;;;;;6271109;22;19999;-77
2023/05/11 07:00:26;;;;;;;11.45;1.70;;;;;;;;;;6270691;22;20000;-77
2023/05/11 07:02:51;;;;;;;9.80;1.75;;;;;;;;;;6243519;22;20011;-77
2023/05/11 07:05:17;;;;;;;9.35;1.75;;;;;;;;;;6270488;22;20482;-77
2023/05/11 07:07:42;;;;;;;8.95;1.60;;;;;;;;;;6270166;22;20054;-76
2023/05/11 07:10:08;;;;;;;13.55;2.08;;;;;;;;;;6270639;22;20026;-77
2023/05/11 07:12:34;;;;;;;7.30;1.52;;;;;;;;;;6270920;22;20454;-77
2023/05/11 07:14:59;;;;;;;8.70;1.60;;;;;;;;;;6270863;22;20533;-77
2023/05/11 07:17:25;;;;;;;7.15;1.60;;;;;;;;;;6270270;22;20038;-77
2023/05/11 07:19:51;;;;;;;10.23;2.03;;;;;;;;;;6243708;22;20034;-76
2023/05/11 07:22:17;;;;;;;13.25;1.92;;;;;;;;;;6270275;22;20006;-78
2023/05/11 07:24:42;;;;;;;4.90;1.50;;;;;;;;;;6270852;22;20031;-76
2023/05/11 07:27:08;;;;;;;10.73;1.63;;;;;;;;;;6270278;22;20344;-77
2023/05/11 07:29:36;;;;;;;11.93;1.60;;;;;;;;;;6270614;22;20027;-77
2023/05/11 07:32:02;;;;;;;9.48;1.55;;;;;;;;;;6270498;22;19996;-77
2023/05/11 07:34:27;;;;;;;11.38;1.67;;;;;;;;;;6270684;22;20519;-77
2023/05/11 07:36:53;;;;;;;9.43;1.60;;;;;;;;;;6269635;22;20038;-77
2023/05/11 07:39:18;;;;;;;7.80;1.52;;;;;;;;;;6217525;22;20014;-77
2023/05/11 07:41:44;;;;;;;10.18;1.67;;;;;;;;;;6116057;23;20002;-77
2023/05/11 07:44:10;;;;;;;5.97;1.50;;;;;;;;;;6116261;23;20438;-76
2023/05/11 07:46:37;;;;;;;13.43;1.70;;;;;;;;;;6115897;23;20010;-79
2023/05/11 07:49:03;;;;;;;9.25;1.42;;;;;;;;;;6116367;23;20009;-78
2023/05/11 07:51:28;;;;;;;6.15;1.50;;;;;;;;;;6114759;23;20006;-77
2023/05/11 07:53:54;;;;;;;8.20;1.30;;;;;;;;;;6115172;23;20300;-78
2023/05/11 07:56:19;;;;;;;6.35;1.35;;;;;;;;;;6115723;23;20013;-78
2023/05/11 07:58:45;;;;;;;9.57;1.75;;;;;;;;;;6116209;23;20488;-77
2023/05/11 08:01:10;;;;;;;8.73;1.60;;;;;;;;;;6115948;23;20010;-77
2023/05/11 08:03:39;;;;;;;7.88;1.42;;;;;;;;;;6116214;23;20446;-77
2023/05/11 08:06:05;;;;;;;7.80;1.40;;;;;;;;;;6115229;23;20006;-77
2023/05/11 08:08:30;;;;;;;8.13;1.30;;;;;;;;;;6115794;23;20083;-78
2023/05/11 08:10:56;;;;;;;8.27;1.23;;;;;;;;;;6115706;23;20010;-77
2023/05/11 08:13:21;;;;;;;8.50;1.40;;;;;;;;;;6115973;23;20012;-77
2023/05/11 08:15:47;;;;;;;4.47;1.00;;;;;;;;;;6115542;23;20013;-78
2023/05/11 08:18:12;;;;;;;3.95;1.20;;;;;;;;;;6217030;23;20006;-78
2023/05/11 08:20:40;;;;;;;8.90;1.80;;;;;;;;;;6217606;23;20006;-78
2023/05/11 08:23:06;;;;;;;6.47;1.33;;;;;;;;;;6115455;23;20460;-78
2023/05/11 08:25:33;;;;;;;4.72;1.10;;;;;;;;;;6217248;23;20029;-78
2023/05/11 08:27:59;;;;;;;7.82;1.30;;;;;;;;;;6115429;23;20085;-77
2023/05/11 08:30:24;;;;;;;5.50;1.08;;;;;;;;;;6115729;23;20029;-77
2023/05/11 08:32:50;;;;;;;8.82;1.30;;;;;;;;;;6115506;23;20010;-78
2023/05/11 08:35:15;;;;;;;4.80;1.00;;;;;;;;;;6115940;23;20051;-78
2023/05/11 08:37:41;;;;;;;8.02;1.30;;;;;;;;;;6114978;23;20040;-77
2023/05/11 08:40:09;;;;;;;5.07;1.27;;;;;;;;;;6241526;22;20012;-76
2023/05/11 08:42:38;;;;;;;3.67;1.00;;;;;;;;;;6269976;22;20443;-77
2023/05/11 08:45:05;;;;;;;6.93;1.17;;;;;;;;;;6270429;22;20004;-77
2023/05/11 08:47:31;;;;;;;5.03;1.30;;;;;;;;;;6269613;22;20018;-77
2023/05/11 08:49:57;;;;;;;6.65;1.33;;;;;;;;;;6270224;22;19999;-77
2023/05/11 08:52:24;;;;;;;11.52;1.67;;;;;;;;;;6269638;22;20004;-78
2023/05/11 08:54:49;;;;;;;8.73;1.48;;;;;;;;;;6270434;22;20495;-77
2023/05/11 08:57:16;;;;;;;8.40;1.20;;;;;;;;;;6242830;22;20042;-77
2023/05/11 08:59:47;;;;;;;7.38;1.42;;;;;;;;;;6270717;22;19996;-77
2023/05/11 09:02:18;;;;;;;12.07;1.40;;;;;;;;;;6269844;22;20008;-78
2023/05/11 09:04:43;;;;;;;;;;;;;;;;;;6270753;22;20004;-77
2023/05/11 09:07:14;;;;;;;9.25;1.30;;;;;;;;;;6271168;22;20267;-77
2023/05/11 09:09:40;;;;;;;;;;;;;;;;;;6272523;22;20416;-77
2023/05/11 09:12:07;;;;;;;5.35;1.15;;;;;;;;;;6271912;22;19907;-77
2023/05/11 09:14:33;;;;;;;6.97;2.00;;;;;;;;;;6270957;22;20007;-77
2023/05/11 09:16:59;;;;;;;7.40;1.60;;;;;;;;;;6271170;22;20049;-78
2023/05/11 09:19:24;;;;;;;8.65;1.60;;;;;;;;;;6244435;22;20039;-77
2023/05/11 09:21:52;;;;;;;6.53;1.40;;;;;;;;;;6270763;22;20011;-77
2023/05/11 09:24:19;;;;;;;8.57;1.23;;;;;;;;;;6271939;22;20004;-77
2023/05/11 09:26:45;;;;;;;5.70;1.10;;;;;;;;;;6271565;22;20004;-77
2023/05/11 09:29:13;;;;;;;9.27;1.20;;;;;;;;;;6271497;22;20026;-77
2023/05/11 09:31:43;;;;;;;8.77;1.40;;;;;;;;;;6271759;22;20398;-77
2023/05/11 09:34:16;;;;;;;8.65;1.75;;;;;;;;;;6271901;22;20007;-78
2023/05/11 09:36:43;;;;;;;5.45;1.00;;;;;;;;;;6271279;22;20024;-78
2023/05/11 09:39:09;;;;;;;6.80;1.10;;;;;;;;;;6271416;22;20500;-77
2023/05/11 09:41:35;;;;;;;6.25;1.30;;;;;;;;;;6271359;22;20010;-77
2023/05/11 09:44:14;;;;;;;8.43;1.48;;;;;;;;;;6271773;22;20010;-78
2023/05/11 09:46:44;;;;;;;5.18;1.38;;;;;;;;;;6244441;22;20012;-78
2023/05/11 09:49:11;;;;;;;4.93;1.27;;;;;;;;;;6271406;22;20042;-77
2023/05/11 09:51:41;;;;;;;11.63;1.27;;;;;;;;;;6271394;22;20053;-77
2023/05/11 09:54:20;;;;;;;5.70;1.20;;;;;;;;;;6271472;22;20325;-77
2023/05/11 09:56:53;;;;;;;8.55;1.02;;;;;;;;;;6271334;22;20007;-77
2023/05/11 09:59:38;;;;;;;5.72;1.25;;;;;;;;;;6271141;22;19999;-77
2023/05/11 10:02:24;;;;;;;4.78;1.13;;;;;;;;;;6271406;22;20336;-77
2023/05/11 10:04:51;;;;;;;4.53;1.27;;;;;;;;;;6271619;22;20081;-77
2023/05/11 10:07:33;;;;;;;3.38;1.08;;;;;;;;;;6243340;22;20015;-77
2023/05/11 10:10:07;;;;;;;2.45;0.82;;;;;;;;;;6271356;22;20004;-77
2023/05/11 10:12:33;;;;;;;3.42;0.90;;;;;;;;;;6270995;22;20007;-78
2023/05/11 10:15:07;;;;;;;2.30;0.90;;;;;;;;;;6244251;22;20099;-77
2023/05/11 10:17:33;;;;;;;3.60;1.15;;;;;;;;;;6270285;22;20426;-77
2023/05/11 10:20:00;;;;;;;5.88;1.10;;;;;;;;;;6271223;22;20023;-78
2023/05/11 10:22:27;;;;;;;4.72;1.30;;;;;;;;;;6270998;22;20003;-78
2023/05/11 10:24:55;;;;;;;4.60;1.10;;;;;;;;;;6244063;22;20008;-78
2023/05/11 10:27:21;;;;;;;4.70;0.98;;;;;;;;;;6271310;22;20007;-77
2023/05/11 10:29:47;;;;;;;3.42;0.90;;;;;;;;;;6271123;22;20078;-77
2023/05/11 10:32:17;;;;;;;4.75;1.45;;;;;;;;;;6271275;22;20004;-77
2023/05/11 10:34:49;;;;;;;2.70;0.88;;;;;;;;;;6243920;22;20012;-77
2023/05/11 10:37:15;;;;;;;4.40;0.75;;;;;;;;;;6270962;22;20343;-78
2023/05/11 10:39:43;;;;;;;4.60;0.80;;;;;;;;;;6270617;22;20016;-77
2023/05/11 10:42:32;;;;;;;4.00;1.00;;;;;;;;;;6271090;22;20007;-77
2023/05/11 10:45:42;;;;;;;1.45;0.60;;;;;;;;;;6271303;22;20053;-78
2023/05/11 10:48:41;;;;;;;4.85;0.90;;;;;;;;;;6223836;22;20038;-78
2023/05/11 10:51:32;;;;;;;2.33;0.85;;;;;;;;;;6271094;22;20581;-77
2023/05/11 10:54:16;;;;;;;;;;;;;;;;;;6271395;22;20007;-78
2023/05/11 10:56:44;;;;;;;3.63;0.88;;;;;;;;;;6271047;22;19907;-77
2023/05/11 10:59:10;;;;;;;2.28;0.70;;;;;;;;;;6270446;22;20006;-77
2023/05/11 11:01:42;;;;;;;4.68;0.90;;;;;;;;;;6271243;22;20004;-78
2023/05/11 11:04:09;;;;;;;4.05;0.75;;;;;;;;;;6270521;22;20109;-77
2023/05/11 11:06:40;;;;;;;2.67;0.60;;;;;;;;;;6270270;22;20090;-78
2023/05/11 11:09:10;;;;;;;2.92;0.70;;;;;;;;;;6270706;22;20004;-78
2023/05/11 11:11:45;;;;;;;4.53;0.95;;;;;;;;;;6271023;22;20339;-77
2023/05/11 11:14:12;;;;;;;6.05;0.88;;;;;;;;;;6270341;22;20450;-77
2023/05/11 11:16:39;;;;;;;2.97;1.15;;;;;;;;;;6243642;22;20030;-77
2023/05/11 11:19:29;;;;;;;5.75;1.05;;;;;;;;;;6242877;22;20062;-76
2023/05/11 11:22:01;;;;;;;6.53;0.82;;;;;;;;;;6270679;22;19999;-76
2023/05/11 11:24:38;;;;;;;5.68;0.80;;;;;;;;;;6270281;22;20075;-78
2023/05/11 11:27:05;;;;;;;4.85;0.98;;;;;;;;;;6270625;22;20091;-78
2023/05/11 11:29:31;;;;;;;5.65;1.10;;;;;;;;;;6270082;22;20003;-77
2023/05/11 11:32:19;;;;;;;5.30;1.40;;;;;;;;;;6270801;22;21070;-77
2023/05/11 11:34:45;;;;;;;3.15;1.05;;;;;;;;;;6242735;22;20004;-77
2023/05/11 11:37:12;;;;;;;5.22;0.90;;;;;;;;;;6270196;22;20587;-77
2023/05/11 11:39:40;;;;;;;5.45;1.13;;;;;;;;;;6270253;22;20016;-77
2023/05/11 11:42:08;;;;;;;5.13;0.93;;;;;;;;;;6270610;22;20004;-77
2023/05/11 11:44:34;;;;;;;4.55;0.80;;;;;;;;;;6270241;22;20343;-77
2023/05/11 11:47:20;;;;;;;4.40;0.75;;;;;;;;;;6270679;22;20085;-77
2023/05/11 11:49:53;;;;;;;4.50;0.90;;;;;;;;;;6242104;22;20008;-77
2023/05/11 11:52:27;;;;;;;2.80;0.80;;;;;;;;;;6270380;22;19996;-77
2023/05/11 11:55:01;;;;;;;3.47;1.00;;;;;;;;;;6270423;22;20007;-77
2023/05/11 11:57:34;;;;;;;5.15;0.60;;;;;;;;;;6270434;22;19999;-77
2023/05/11 12:00:00;;;;;;;2.53;0.60;;;;;;;;;;6269884;22;20004;-77
2023/05/11 12:02:26;;;;;;;2.88;0.70;;;;;;;;;;6270314;22;20030;-77
2023/05/11 12:05:11;;;;;;;2.72;0.63;;;;;;;;;;6270160;22;20044;-78
2023/05/11 12:07:41;;;;;;;3.83;0.85;;;;;;;;;;6270181;22;20556;-78
2023/05/11 12:10:07;;;;;;;2.28;0.60;;;;;;;;;;6270861;22;20067;-78
2023/05/11 12:12:34;;;;;;;3.42;0.80;;;;;;;;;;6270810;22;20000;-78
2023/05/11 12:15:01;;;;;;;1.58;0.50;;;;;;;;;;6270338;22;20004;-77
2023/05/11 12:17:28;;;;;;;1.77;0.70;;;;;;;;;;6270588;22;20003;-77
2023/05/11 12:19:54;;;;;;;5.20;0.80;;;;;;;;;;6269857;22;19996;-78
2023/05/11 12:22:24;;;;;;;4.47;0.80;;;;;;;;;;6270000;22;20052;-77
2023/05/11 12:24:50;;;;;;;5.95;0.82;;;;;;;;;;6242896;22;20004;-78
2023/05/11 12:27:17;;;;;;;5.80;1.38;;;;;;;;;;6270517;22;20014;-77
2023/05/11 12:29:51;;;;;;;7.03;1.02;;;;;;;;;;6270160;22;20079;-77
2023/05/11 12:32:27;;;;;;;2.45;0.93;;;;;;;;;;6270767;22;20010;-77
2023/05/11 12:34:58;;;;;;;3.95;0.90;;;;;;;;;;6270061;22;20007;-78
2023/05/11 12:37:23;;;;;;;;;;;;;;;;;;6270273;22;20000;-77
2023/05/11 12:39:53;;;;;;;5.55;0.95;;;;;;;;;;6269697;22;19957;-77
2023/05/11 12:42:19;;;;;;;3.65;0.90;;;;;;;;;;6272381;22;20003;-77
2023/05/11 12:44:45;;;;;;;5.50;0.80;;;;;;;;;;6271970;22;20010;-77
2023/05/11 12:47:10;;;;;;;3.75;0.82;;;;;;;;;;6272091;22;20004;-77
2023/05/11 12:49:36;;;;;;;3.63;0.70;;;;;;;;;;6271790;22;20521;-77
2023/05/11 12:52:09;;;;;;;6.43;0.98;;;;;;;;;;6271621;22;20011;-77
2023/05/11 12:54:37;;;;;;;2.92;0.77;;;;;;;;;;6271956;22;20007;-76
2023/05/11 12:57:04;;;;;;;3.60;0.80;;;;;;;;;;6272249;22;20656;-77
2023/05/11 12:59:38;;;;;;;4.55;0.80;;;;;;;;;;6271618;22;20057;-77
2023/05/11 13:02:17;;;;;;;2.70;0.60;;;;;;;;;;6272249;22;20013;-77
2023/05/11 13:04:44;;;;;;;2.83;0.70;;;;;;;;;;6271948;22;20017;-77
2023/05/11 13:07:10;;;;;;;5.97;0.95;;;;;;;;;;6271407;22;20094;-77
2023/05/11 13:09:36;;;;;;;3.53;0.90;;;;;;;;;;6271523;22;20004;-77
2023/05/11 13:12:17;;;;;;;2.55;0.70;;;;;;;;;;6272088;22;20054;-77
2023/05/11 13:14:48;;;;;;;2.80;0.80;;;;;;;;;;6271621;22;20034;-77
2023/05/11 13:17:35;;;;;;;3.22;0.70;;;;;;;;;;6272256;22;20008;-76
2023/05/11 13:20:23;;;;;;;2.50;0.82;;;;;;;;;;6271420;22;20026;-78
2023/05/11 13:22:49;;;;;;;3.08;0.88;;;;;;;;;;6271779;22;20003;-77
2023/05/11 13:25:17;;;;;;;2.22;0.73;;;;;;;;;;6271807;22;20402;-79
2023/05/11 13:27:42;;;;;;;4.65;0.70;;;;;;;;;;6271886;22;20047;-78
2023/05/11 13:30:08;;;;;;;3.90;0.88;;;;;;;;;;6271150;22;20182;-77
2023/05/11 13:32:35;;;;;;;12.45;1.20;;;;;;;;;;6271645;22;20434;-77
2023/05/11 13:35:02;;;;;;;3.65;0.82;;;;;;;;;;6271662;22;20003;-77
2023/05/11 13:37:28;;;;;;;2.88;0.85;;;;;;;;;;6271320;22;20011;-77
2023/05/11 13:39:53;;;;;;;3.95;0.77;;;;;;;;;;6271348;22;20027;-77
2023/05/11 13:42:22;;;;;;;2.33;0.70;;;;;;;;;;6271904;22;20003;-78
2023/05/11 13:44:47;;;;;;;4.25;0.80;;;;;;;;;;6244455;22;20011;-76
2023/05/11 13:47:12;;;;;;;3.08;0.77;;;;;;;;;;6271628;22;20027;-77
2023/05/11 13:49:38;;;;;;;2.15;0.60;;;;;;;;;;6271191;22;20023;-77
2023/05/11 13:52:03;;;;;;;1.73;0.40;;;;;;;;;;6243713;22;20008;-77
2023/05/11 13:54:30;;;;;;;2.35;0.60;;;;;;;;;;6271552;22;20415;-77
2023/05/11 13:56:56;;;;;;;1.48;0.40;;;;;;;;;;6271782;22;20023;-77
2023/05/11 13:59:22;;;;;;;3.97;0.60;;;;;;;;;;6271444;22;20006;-77
2023/05/11 14:01:47;;;;;;;2.08;0.40;;;;;;;;;;6271454;22;20375;-77
2023/05/11 14:04:12;;;;;;;0.80;0.40;;;;;;;;;;6271553;22;20034;-77
2023/05/11 14:06:38;;;;;;;1.65;0.60;;;;;;;;;;6270300;22;20007;-77
2023/05/11 14:09:03;;;;;;;0.93;0.30;;;;;;;;;;6271413;22;20100;-77
2023/05/11 14:11:29;;;;;;;0.95;0.50;;;;;;;;;;6271221;22;20132;-77
2023/05/11 14:13:54;;;;;;;1.10;0.40;;;;;;;;;;6271450;22;20070;-77
2023/05/11 14:16:20;;;;;;;1.25;0.32;;;;;;;;;;6271463;22;20447;-77
2023/05/11 14:18:47;;;;;;;1.73;0.50;;;;;;;;;;6271514;22;20004;-78
2023/05/11 14:21:28;;;;;;;1.85;0.47;;;;;;;;;;6270288;22;20008;-77
2023/05/11 14:23:54;;;;;;;1.80;0.43;;;;;;;;;;6244258;22;20412;-77
2023/05/11 14:26:20;;;;;;;1.70;0.40;;;;;;;;;;6271077;22;20000;-77
2023/05/11 14:28:46;;;;;;;0.82;0.40;;;;;;;;;;6271266;22;20057;-77
2023/05/11 14:31:11;;;;;;;1.52;0.40;;;;;;;;;;6270898;22;20031;-77
2023/05/11 14:33:38;;;;;;;0.82;0.50;;;;;;;;;;6271375;22;20492;-77
2023/05/11 14:36:03;;;;;;;1.35;0.40;;;;;;;;;;6271043;22;20076;-77
2023/05/11 14:38:29;;;;;;;0.88;0.40;;;;;;;;;;6270653;22;20023;-77
2023/05/11 14:40:55;;;;;;;2.03;0.57;;;;;;;;;;6269457;22;20000;-77
2023/05/11 14:43:23;;;;;;;2.53;0.60;;;;;;;;;;6269890;22;19999;-77
2023/05/11 14:45:48;;;;;;;1.88;0.60;;;;;;;;;;6269244;22;19995;-77
2023/05/11 14:48:13;;;;;;;1.52;0.60;;;;;;;;;;6269869;22;20010;-77